sensor_id;sensor_type;location;lat;lon;timestamp;P1;durP1;ratioP1;P2;durP2;ratioP2
66721;SDS011;53633;49.932;10.884;2022-11-27T00:02:07;21.25;;;9.43;;
66721;SDS011;53633;49.932;10.884;2022-11-27T00:04:33;24.58;;;8.63;;
66721;SDS011;53633;49.932;10.884;2022-11-27T00:07:00;21.05;;;9.00;;
66721;SDS011;53633;49.932;10.884;2022-11-27T00:09:27;27.60;;;8.68;;
66721;SDS011;53633;49.932;10.884;2022-11-27T00:11:54;33.53;;;9.37;;
66721;SDS011;53633;49.932;10.884;2022-11-27T00:14:22;20.88;;;8.98;;
66721;SDS011;53633;49.932;10.884;2022-11-27T00:16:48;28.08;;;10.00;;
66721;SDS011;53633;49.932;10.884;2022-11-27T00:19:15;25.30;;;8.48;;
66721;SDS011;53633;49.932;10.884;2022-11-27T00:21:42;20.73;;;8.68;;
66721;SDS011;53633;49.932;10.884;2022-11-27T00:24:09;21.17;;;8.73;;
66721;SDS011;53633;49.932;10.884;2022-11-27T00:26:36;22.48;;;8.63;;
66721;SDS011;53633;49.932;10.884;2022-11-27T00:29:03;19.67;;;8.18;;
66721;SDS011;53633;49.932;10.884;2022-11-27T00:31:32;18.90;;;8.57;;
66721;SDS011;53633;49.932;10.884;2022-11-27T00:34:01;17.38;;;7.93;;
66721;SDS011;53633;49.932;10.884;2022-11-27T00:36:30;17.17;;;7.73;;
66721;SDS011;53633;49.932;10.884;2022-11-27T00:38:58;19.63;;;8.52;;
66721;SDS011;53633;49.932;10.884;2022-11-27T00:41:26;19.75;;;8.32;;
66721;SDS011;53633;49.932;10.884;2022-11-27T00:43:54;22.48;;;9.07;;
66721;SDS011;53633;49.932;10.884;2022-11-27T00:46:23;22.75;;;9.60;;
66721;SDS011;53633;49.932;10.884;2022-11-27T00:48:55;20.53;;;8.40;;
66721;SDS011;53633;49.932;10.884;2022-11-27T00:51:23;19.92;;;9.18;;
66721;SDS011;53633;49.932;10.884;2022-11-27T00:53:50;21.65;;;9.00;;
66721;SDS011;53633;49.932;10.884;2022-11-27T00:56:18;23.42;;;8.70;;
66721;SDS011;53633;49.932;10.884;2022-11-27T00:58:47;18.92;;;8.30;;
66721;SDS011;53633;49.932;10.884;2022-11-27T01:01:14;20.40;;;9.37;;
66721;SDS011;53633;49.932;10.884;2022-11-27T01:03:43;20.08;;;8.77;;
66721;SDS011;53633;49.932;10.884;2022-11-27T01:06:11;21.40;;;8.50;;
66721;SDS011;53633;49.932;10.884;2022-11-27T01:08:39;22.48;;;9.02;;
66721;SDS011;53633;49.932;10.884;2022-11-27T01:11:06;20.25;;;7.90;;
66721;SDS011;53633;49.932;10.884;2022-11-27T01:13:38;17.90;;;7.57;;
66721;SDS011;53633;49.932;10.884;2022-11-27T01:16:05;15.57;;;7.57;;
66721;SDS011;53633;49.932;10.884;2022-11-27T01:18:33;16.13;;;6.72;;
66721;SDS011;53633;49.932;10.884;2022-11-27T01:21:01;17.40;;;7.43;;
66721;SDS011;53633;49.932;10.884;2022-11-27T01:23:30;17.38;;;7.50;;
66721;SDS011;53633;49.932;10.884;2022-11-27T01:25:58;15.37;;;6.73;;
66721;SDS011;53633;49.932;10.884;2022-11-27T01:28:26;13.88;;;6.50;;
66721;SDS011;53633;49.932;10.884;2022-11-27T01:30:52;15.68;;;6.88;;
66721;SDS011;53633;49.932;10.884;2022-11-27T01:33:20;19.92;;;6.80;;
66721;SDS011;53633;49.932;10.884;2022-11-27T01:35:53;16.00;;;6.97;;
66721;SDS011;53633;49.932;10.884;2022-11-27T01:38:21;20.83;;;7.23;;
66721;SDS011;53633;49.932;10.884;2022-11-27T01:40:53;17.08;;;7.15;;
66721;SDS011;53633;49.932;10.884;2022-11-27T01:43:34;16.17;;;6.75;;
66721;SDS011;53633;49.932;10.884;2022-11-27T01:46:02;18.10;;;6.85;;
66721;SDS011;53633;49.932;10.884;2022-11-27T01:48:29;17.42;;;6.68;;
66721;SDS011;53633;49.932;10.884;2022-11-27T01:50:57;16.00;;;7.33;;
66721;SDS011;53633;49.932;10.884;2022-11-27T01:53:23;15.90;;;6.60;;
66721;SDS011;53633;49.932;10.884;2022-11-27T01:55:53;18.30;;;7.57;;
66721;SDS011;53633;49.932;10.884;2022-11-27T01:58:23;16.45;;;7.57;;
66721;SDS011;53633;49.932;10.884;2022-11-27T02:00:52;16.45;;;7.55;;
66721;SDS011;53633;49.932;10.884;2022-11-27T02:03:19;15.90;;;7.17;;
66721;SDS011;53633;49.932;10.884;2022-11-27T02:05:46;17.85;;;7.13;;
66721;SDS011;53633;49.932;10.884;2022-11-27T02:08:14;17.23;;;7.60;;
66721;SDS011;53633;49.932;10.884;2022-11-27T02:10:45;18.90;;;8.32;;
66721;SDS011;53633;49.932;10.884;2022-11-27T02:13:17;20.98;;;8.80;;
66721;SDS011;53633;49.932;10.884;2022-11-27T02:15:49;21.17;;;8.90;;
66721;SDS011;53633;49.932;10.884;2022-11-27T02:18:22;16.45;;;7.25;;
66721;SDS011;53633;49.932;10.884;2022-11-27T02:20:56;20.20;;;8.05;;
66721;SDS011;53633;49.932;10.884;2022-11-27T02:27:01;25.90;;;8.50;;
66721;SDS011;53633;49.932;10.884;2022-11-27T02:29:44;18.47;;;7.73;;
66721;SDS011;53633;49.932;10.884;2022-11-27T02:32:14;20.77;;;8.13;;
66721;SDS011;53633;49.932;10.884;2022-11-27T02:34:48;19.95;;;8.48;;
66721;SDS011;53633;49.932;10.884;2022-11-27T02:37:20;34.83;;;9.07;;
66721;SDS011;53633;49.932;10.884;2022-11-27T02:39:54;17.23;;;7.75;;
66721;SDS011;53633;49.932;10.884;2022-11-27T02:42:24;21.53;;;8.77;;
66721;SDS011;53633;49.932;10.884;2022-11-27T02:44:57;20.15;;;8.32;;
66721;SDS011;53633;49.932;10.884;2022-11-27T02:47:27;20.83;;;7.63;;
66721;SDS011;53633;49.932;10.884;2022-11-27T02:49:56;20.27;;;8.45;;
66721;SDS011;53633;49.932;10.884;2022-11-27T02:52:24;23.83;;;7.95;;
66721;SDS011;53633;49.932;10.884;2022-11-27T02:54:54;24.17;;;8.97;;
66721;SDS011;53633;49.932;10.884;2022-11-27T02:57:24;26.25;;;8.40;;
66721;SDS011;53633;49.932;10.884;2022-11-27T02:59:52;20.75;;;8.52;;
66721;SDS011;53633;49.932;10.884;2022-11-27T03:02:25;23.15;;;8.68;;
66721;SDS011;53633;49.932;10.884;2022-11-27T03:04:54;24.98;;;8.70;;
66721;SDS011;53633;49.932;10.884;2022-11-27T03:07:25;17.17;;;8.03;;
66721;SDS011;53633;49.932;10.884;2022-11-27T03:09:57;21.20;;;8.60;;
66721;SDS011;53633;49.932;10.884;2022-11-27T03:12:28;19.25;;;8.10;;
66721;SDS011;53633;49.932;10.884;2022-11-27T03:14:55;24.08;;;8.90;;
66721;SDS011;53633;49.932;10.884;2022-11-27T03:17:28;20.80;;;8.40;;
66721;SDS011;53633;49.932;10.884;2022-11-27T03:20:04;21.17;;;8.50;;
66721;SDS011;53633;49.932;10.884;2022-11-27T03:22:36;18.55;;;7.53;;
66721;SDS011;53633;49.932;10.884;2022-11-27T03:25:03;21.27;;;7.65;;
66721;SDS011;53633;49.932;10.884;2022-11-27T03:27:30;20.38;;;7.60;;
66721;SDS011;53633;49.932;10.884;2022-11-27T03:30:01;19.10;;;7.78;;
66721;SDS011;53633;49.932;10.884;2022-11-27T03:32:32;18.27;;;8.00;;
66721;SDS011;53633;49.932;10.884;2022-11-27T03:34:59;23.40;;;7.47;;
66721;SDS011;53633;49.932;10.884;2022-11-27T03:37:26;16.75;;;6.80;;
66721;SDS011;53633;49.932;10.884;2022-11-27T03:39:53;14.50;;;6.30;;
66721;SDS011;53633;49.932;10.884;2022-11-27T03:42:21;18.40;;;6.90;;
66721;SDS011;53633;49.932;10.884;2022-11-27T03:44:54;14.87;;;7.20;;
66721;SDS011;53633;49.932;10.884;2022-11-27T03:47:31;19.17;;;6.68;;
66721;SDS011;53633;49.932;10.884;2022-11-27T03:50:11;15.05;;;6.70;;
66721;SDS011;53633;49.932;10.884;2022-11-27T03:52:51;14.15;;;6.28;;
66721;SDS011;53633;49.932;10.884;2022-11-27T03:55:27;13.48;;;6.05;;
66721;SDS011;53633;49.932;10.884;2022-11-27T03:58:00;19.87;;;5.40;;
66721;SDS011;53633;49.932;10.884;2022-11-27T04:00:32;12.60;;;5.72;;
66721;SDS011;53633;49.932;10.884;2022-11-27T04:03:03;14.32;;;6.03;;
66721;SDS011;53633;49.932;10.884;2022-11-27T04:05:30;14.05;;;5.78;;
66721;SDS011;53633;49.932;10.884;2022-11-27T04:07:57;14.85;;;5.43;;
66721;SDS011;53633;49.932;10.884;2022-11-27T04:10:24;16.60;;;5.70;;
66721;SDS011;53633;49.932;10.884;2022-11-27T04:12:50;15.40;;;6.15;;
66721;SDS011;53633;49.932;10.884;2022-11-27T04:15:17;14.38;;;6.10;;
66721;SDS011;53633;49.932;10.884;2022-11-27T04:17:44;14.45;;;6.15;;
66721;SDS011;53633;49.932;10.884;2022-11-27T04:20:13;18.55;;;6.35;;
66721;SDS011;53633;49.932;10.884;2022-11-27T04:22:40;17.73;;;7.20;;
66721;SDS011;53633;49.932;10.884;2022-11-27T04:25:07;14.57;;;5.88;;
66721;SDS011;53633;49.932;10.884;2022-11-27T04:27:35;17.85;;;6.75;;
66721;SDS011;53633;49.932;10.884;2022-11-27T04:30:02;14.35;;;6.38;;
66721;SDS011;53633;49.932;10.884;2022-11-27T04:32:29;15.70;;;6.43;;
66721;SDS011;53633;49.932;10.884;2022-11-27T04:34:56;15.90;;;6.73;;
66721;SDS011;53633;49.932;10.884;2022-11-27T04:37:24;19.08;;;6.18;;
66721;SDS011;53633;49.932;10.884;2022-11-27T04:39:51;17.13;;;6.43;;
66721;SDS011;53633;49.932;10.884;2022-11-27T04:42:18;14.68;;;5.78;;
66721;SDS011;53633;49.932;10.884;2022-11-27T04:44:44;15.55;;;5.78;;
66721;SDS011;53633;49.932;10.884;2022-11-27T04:47:11;13.53;;;6.00;;
66721;SDS011;53633;49.932;10.884;2022-11-27T04:49:38;16.38;;;5.88;;
66721;SDS011;53633;49.932;10.884;2022-11-27T04:52:05;18.10;;;5.18;;
66721;SDS011;53633;49.932;10.884;2022-11-27T04:54:33;11.98;;;5.32;;
66721;SDS011;53633;49.932;10.884;2022-11-27T04:56:59;14.93;;;5.65;;
66721;SDS011;53633;49.932;10.884;2022-11-27T04:59:26;15.87;;;5.90;;
66721;SDS011;53633;49.932;10.884;2022-11-27T05:01:53;13.68;;;5.20;;
66721;SDS011;53633;49.932;10.884;2022-11-27T05:04:20;12.90;;;4.70;;
66721;SDS011;53633;49.932;10.884;2022-11-27T05:06:47;13.35;;;5.40;;
66721;SDS011;53633;49.932;10.884;2022-11-27T05:09:15;18.42;;;5.05;;
66721;SDS011;53633;49.932;10.884;2022-11-27T05:11:43;25.37;;;5.03;;
66721;SDS011;53633;49.932;10.884;2022-11-27T05:14:10;16.88;;;5.07;;
66721;SDS011;53633;49.932;10.884;2022-11-27T05:16:37;12.20;;;5.03;;
66721;SDS011;53633;49.932;10.884;2022-11-27T05:19:04;13.65;;;5.47;;
66721;SDS011;53633;49.932;10.884;2022-11-27T05:21:30;13.27;;;5.20;;
66721;SDS011;53633;49.932;10.884;2022-11-27T05:23:57;13.43;;;5.00;;
66721;SDS011;53633;49.932;10.884;2022-11-27T05:26:24;12.15;;;4.93;;
66721;SDS011;53633;49.932;10.884;2022-11-27T05:28:52;10.80;;;4.70;;
66721;SDS011;53633;49.932;10.884;2022-11-27T05:31:19;11.38;;;4.40;;
66721;SDS011;53633;49.932;10.884;2022-11-27T05:33:46;15.07;;;5.28;;
66721;SDS011;53633;49.932;10.884;2022-11-27T05:36:12;14.17;;;4.50;;
66721;SDS011;53633;49.932;10.884;2022-11-27T05:38:39;10.68;;;4.55;;
66721;SDS011;53633;49.932;10.884;2022-11-27T05:41:07;14.23;;;4.40;;
66721;SDS011;53633;49.932;10.884;2022-11-27T05:43:33;11.40;;;3.85;;
66721;SDS011;53633;49.932;10.884;2022-11-27T05:46:04;9.80;;;3.75;;
66721;SDS011;53633;49.932;10.884;2022-11-27T05:48:31;10.00;;;4.50;;
66721;SDS011;53633;49.932;10.884;2022-11-27T05:50:58;9.63;;;4.68;;
66721;SDS011;53633;49.932;10.884;2022-11-27T05:53:26;9.40;;;4.15;;
66721;SDS011;53633;49.932;10.884;2022-11-27T05:55:53;11.73;;;4.57;;
66721;SDS011;53633;49.932;10.884;2022-11-27T05:58:19;11.70;;;4.35;;
66721;SDS011;53633;49.932;10.884;2022-11-27T06:00:46;12.10;;;5.03;;
66721;SDS011;53633;49.932;10.884;2022-11-27T06:03:15;13.85;;;4.82;;
66721;SDS011;53633;49.932;10.884;2022-11-27T06:05:41;11.48;;;4.88;;
66721;SDS011;53633;49.932;10.884;2022-11-27T06:08:08;12.10;;;5.10;;
66721;SDS011;53633;49.932;10.884;2022-11-27T06:10:36;11.38;;;4.28;;
66721;SDS011;53633;49.932;10.884;2022-11-27T06:13:04;12.13;;;4.47;;
66721;SDS011;53633;49.932;10.884;2022-11-27T06:15:31;11.50;;;4.07;;
66721;SDS011;53633;49.932;10.884;2022-11-27T06:17:58;14.38;;;4.22;;
66721;SDS011;53633;49.932;10.884;2022-11-27T06:20:26;10.48;;;4.28;;
66721;SDS011;53633;49.932;10.884;2022-11-27T06:22:52;11.32;;;4.50;;
66721;SDS011;53633;49.932;10.884;2022-11-27T06:25:20;10.80;;;4.70;;
66721;SDS011;53633;49.932;10.884;2022-11-27T06:27:47;11.02;;;4.57;;
66721;SDS011;53633;49.932;10.884;2022-11-27T06:30:15;12.98;;;4.35;;
66721;SDS011;53633;49.932;10.884;2022-11-27T06:32:42;9.93;;;4.40;;
66721;SDS011;53633;49.932;10.884;2022-11-27T06:35:08;9.85;;;3.97;;
66721;SDS011;53633;49.932;10.884;2022-11-27T06:37:37;10.40;;;4.10;;
66721;SDS011;53633;49.932;10.884;2022-11-27T06:40:04;11.27;;;4.80;;
66721;SDS011;53633;49.932;10.884;2022-11-27T06:42:32;13.20;;;4.50;;
66721;SDS011;53633;49.932;10.884;2022-11-27T06:44:58;15.43;;;4.35;;
66721;SDS011;53633;49.932;10.884;2022-11-27T06:47:25;12.65;;;4.63;;
66721;SDS011;53633;49.932;10.884;2022-11-27T06:49:52;11.53;;;4.63;;
66721;SDS011;53633;49.932;10.884;2022-11-27T06:52:18;12.68;;;5.35;;
66721;SDS011;53633;49.932;10.884;2022-11-27T06:54:47;11.60;;;4.60;;
66721;SDS011;53633;49.932;10.884;2022-11-27T06:57:13;9.30;;;4.07;;
66721;SDS011;53633;49.932;10.884;2022-11-27T06:59:40;15.52;;;6.32;;
66721;SDS011;53633;49.932;10.884;2022-11-27T07:02:08;10.63;;;4.30;;
66721;SDS011;53633;49.932;10.884;2022-11-27T07:04:39;9.02;;;4.40;;
66721;SDS011;53633;49.932;10.884;2022-11-27T07:07:06;12.75;;;5.57;;
66721;SDS011;53633;49.932;10.884;2022-11-27T07:09:33;10.55;;;4.25;;
66721;SDS011;53633;49.932;10.884;2022-11-27T07:12:01;19.13;;;4.57;;
66721;SDS011;53633;49.932;10.884;2022-11-27T07:14:30;10.73;;;3.83;;
66721;SDS011;53633;49.932;10.884;2022-11-27T07:16:57;12.50;;;4.40;;
66721;SDS011;53633;49.932;10.884;2022-11-27T07:19:24;10.75;;;3.80;;
66721;SDS011;53633;49.932;10.884;2022-11-27T07:21:51;12.73;;;4.90;;
66721;SDS011;53633;49.932;10.884;2022-11-27T07:24:17;11.73;;;4.63;;
66721;SDS011;53633;49.932;10.884;2022-11-27T07:26:44;11.30;;;4.97;;
66721;SDS011;53633;49.932;10.884;2022-11-27T07:29:12;12.20;;;4.82;;
66721;SDS011;53633;49.932;10.884;2022-11-27T07:31:39;10.35;;;4.45;;
66721;SDS011;53633;49.932;10.884;2022-11-27T07:34:06;11.20;;;4.28;;
66721;SDS011;53633;49.932;10.884;2022-11-27T07:36:41;12.77;;;4.65;;
66721;SDS011;53633;49.932;10.884;2022-11-27T07:39:08;11.47;;;5.20;;
66721;SDS011;53633;49.932;10.884;2022-11-27T07:41:34;11.65;;;4.38;;
66721;SDS011;53633;49.932;10.884;2022-11-27T07:44:01;17.25;;;5.03;;
66721;SDS011;53633;49.932;10.884;2022-11-27T07:46:30;14.30;;;4.05;;
66721;SDS011;53633;49.932;10.884;2022-11-27T07:48:56;11.48;;;4.25;;
66721;SDS011;53633;49.932;10.884;2022-11-27T07:51:23;13.50;;;5.40;;
66721;SDS011;53633;49.932;10.884;2022-11-27T07:53:50;18.58;;;4.78;;
66721;SDS011;53633;49.932;10.884;2022-11-27T07:56:17;15.00;;;4.85;;
66721;SDS011;53633;49.932;10.884;2022-11-27T07:58:45;11.65;;;4.57;;
66721;SDS011;53633;49.932;10.884;2022-11-27T08:01:12;13.23;;;5.43;;
66721;SDS011;53633;49.932;10.884;2022-11-27T08:03:42;12.20;;;4.87;;
66721;SDS011;53633;49.932;10.884;2022-11-27T08:06:12;14.20;;;4.95;;
66721;SDS011;53633;49.932;10.884;2022-11-27T08:08:40;16.83;;;7.93;;
66721;SDS011;53633;49.932;10.884;2022-11-27T08:11:13;13.10;;;5.20;;
66721;SDS011;53633;49.932;10.884;2022-11-27T08:13:41;10.80;;;4.03;;
66721;SDS011;53633;49.932;10.884;2022-11-27T08:16:07;16.23;;;4.67;;
66721;SDS011;53633;49.932;10.884;2022-11-27T08:18:34;11.73;;;4.78;;
66721;SDS011;53633;49.932;10.884;2022-11-27T08:21:03;11.45;;;5.05;;
66721;SDS011;53633;49.932;10.884;2022-11-27T08:23:29;17.98;;;4.65;;
66721;SDS011;53633;49.932;10.884;2022-11-27T08:25:56;12.38;;;4.10;;
66721;SDS011;53633;49.932;10.884;2022-11-27T08:28:23;16.80;;;4.53;;
66721;SDS011;53633;49.932;10.884;2022-11-27T08:30:54;12.15;;;5.28;;
66721;SDS011;53633;49.932;10.884;2022-11-27T08:33:21;9.48;;;4.07;;
66721;SDS011;53633;49.932;10.884;2022-11-27T08:35:48;9.77;;;3.78;;
66721;SDS011;53633;49.932;10.884;2022-11-27T08:38:17;9.80;;;4.40;;
66721;SDS011;53633;49.932;10.884;2022-11-27T08:40:43;9.47;;;4.10;;
66721;SDS011;53633;49.932;10.884;2022-11-27T08:43:10;12.25;;;3.40;;
66721;SDS011;53633;49.932;10.884;2022-11-27T08:45:37;8.45;;;3.25;;
66721;SDS011;53633;49.932;10.884;2022-11-27T08:48:05;8.77;;;3.30;;
66721;SDS011;53633;49.932;10.884;2022-11-27T08:50:32;9.23;;;3.33;;
66721;SDS011;53633;49.932;10.884;2022-11-27T08:52:59;8.27;;;3.00;;
66721;SDS011;53633;49.932;10.884;2022-11-27T08:55:27;8.77;;;3.88;;
66721;SDS011;53633;49.932;10.884;2022-11-27T08:57:53;15.30;;;4.80;;
66721;SDS011;53633;49.932;10.884;2022-11-27T09:00:20;12.02;;;5.38;;
66721;SDS011;53633;49.932;10.884;2022-11-27T09:02:53;14.57;;;6.03;;
66721;SDS011;53633;49.932;10.884;2022-11-27T09:05:20;14.73;;;5.43;;
66721;SDS011;53633;49.932;10.884;2022-11-27T09:07:46;14.05;;;5.63;;
66721;SDS011;53633;49.932;10.884;2022-11-27T09:10:16;12.45;;;5.28;;
66721;SDS011;53633;49.932;10.884;2022-11-27T09:12:44;14.82;;;5.78;;
66721;SDS011;53633;49.932;10.884;2022-11-27T09:15:11;14.43;;;5.50;;
66721;SDS011;53633;49.932;10.884;2022-11-27T09:17:38;14.20;;;5.67;;
66721;SDS011;53633;49.932;10.884;2022-11-27T09:20:05;15.15;;;5.82;;
66721;SDS011;53633;49.932;10.884;2022-11-27T09:22:33;18.55;;;7.20;;
66721;SDS011;53633;49.932;10.884;2022-11-27T09:25:00;20.98;;;8.02;;
66721;SDS011;53633;49.932;10.884;2022-11-27T09:27:27;18.95;;;8.82;;
66721;SDS011;53633;49.932;10.884;2022-11-27T09:29:55;19.37;;;8.43;;
66721;SDS011;53633;49.932;10.884;2022-11-27T09:32:22;15.00;;;6.80;;
66721;SDS011;53633;49.932;10.884;2022-11-27T09:34:50;18.67;;;7.85;;
66721;SDS011;53633;49.932;10.884;2022-11-27T09:37:16;18.63;;;7.88;;
66721;SDS011;53633;49.932;10.884;2022-11-27T09:39:43;22.08;;;7.82;;
66721;SDS011;53633;49.932;10.884;2022-11-27T09:42:11;20.90;;;8.50;;
66721;SDS011;53633;49.932;10.884;2022-11-27T09:44:46;20.05;;;8.07;;
66721;SDS011;53633;49.932;10.884;2022-11-27T09:47:29;20.88;;;8.25;;
66721;SDS011;53633;49.932;10.884;2022-11-27T09:50:09;21.45;;;7.72;;
66721;SDS011;53633;49.932;10.884;2022-11-27T09:52:39;19.60;;;7.40;;
66721;SDS011;53633;49.932;10.884;2022-11-27T09:55:10;24.90;;;10.13;;
66721;SDS011;53633;49.932;10.884;2022-11-27T09:57:40;21.88;;;9.00;;
66721;SDS011;53633;49.932;10.884;2022-11-27T10:00:10;23.02;;;9.25;;
66721;SDS011;53633;49.932;10.884;2022-11-27T10:02:41;22.48;;;8.60;;
66721;SDS011;53633;49.932;10.884;2022-11-27T10:05:11;21.98;;;9.13;;
66721;SDS011;53633;49.932;10.884;2022-11-27T10:10:37;28.98;;;9.52;;
66721;SDS011;53633;49.932;10.884;2022-11-27T10:13:09;27.20;;;10.45;;
66721;SDS011;53633;49.932;10.884;2022-11-27T10:15:53;29.05;;;11.23;;
66721;SDS011;53633;49.932;10.884;2022-11-27T10:18:27;27.55;;;9.70;;
66721;SDS011;53633;49.932;10.884;2022-11-27T10:20:58;25.10;;;8.67;;
66721;SDS011;53633;49.932;10.884;2022-11-27T10:23:33;20.38;;;7.63;;
66721;SDS011;53633;49.932;10.884;2022-11-27T10:26:10;20.25;;;7.28;;
66721;SDS011;53633;49.932;10.884;2022-11-27T10:28:44;19.02;;;7.25;;
66721;SDS011;53633;49.932;10.884;2022-11-27T10:31:18;18.27;;;7.18;;
66721;SDS011;53633;49.932;10.884;2022-11-27T10:33:55;21.27;;;7.47;;
66721;SDS011;53633;49.932;10.884;2022-11-27T10:36:26;19.77;;;7.20;;
66721;SDS011;53633;49.932;10.884;2022-11-27T10:38:56;20.48;;;7.40;;
66721;SDS011;53633;49.932;10.884;2022-11-27T10:41:27;19.52;;;7.30;;
66721;SDS011;53633;49.932;10.884;2022-11-27T10:44:23;18.38;;;6.70;;
66721;SDS011;53633;49.932;10.884;2022-11-27T10:46:55;21.83;;;7.77;;
66721;SDS011;53633;49.932;10.884;2022-11-27T10:49:25;23.05;;;7.93;;
66721;SDS011;53633;49.932;10.884;2022-11-27T10:51:52;19.95;;;7.57;;
66721;SDS011;53633;49.932;10.884;2022-11-27T10:54:21;20.98;;;7.32;;
66721;SDS011;53633;49.932;10.884;2022-11-27T11:00:00;21.13;;;7.70;;
66721;SDS011;53633;49.932;10.884;2022-11-27T11:02:32;23.60;;;7.93;;
66721;SDS011;53633;49.932;10.884;2022-11-27T11:05:09;20.17;;;8.27;;
66721;SDS011;53633;49.932;10.884;2022-11-27T11:08:13;20.52;;;7.75;;
66721;SDS011;53633;49.932;10.884;2022-11-27T11:10:42;21.95;;;7.72;;
66721;SDS011;53633;49.932;10.884;2022-11-27T11:13:16;21.40;;;7.80;;
66721;SDS011;53633;49.932;10.884;2022-11-27T11:15:51;20.40;;;8.55;;
66721;SDS011;53633;49.932;10.884;2022-11-27T11:18:20;18.15;;;6.82;;
66721;SDS011;53633;49.932;10.884;2022-11-27T11:20:50;20.10;;;7.75;;
66721;SDS011;53633;49.932;10.884;2022-11-27T11:23:20;20.20;;;8.07;;
66721;SDS011;53633;49.932;10.884;2022-11-27T11:25:50;25.35;;;9.52;;
66721;SDS011;53633;49.932;10.884;2022-11-27T11:28:19;21.17;;;7.60;;
66721;SDS011;53633;49.932;10.884;2022-11-27T11:30:52;19.48;;;7.70;;
66721;SDS011;53633;49.932;10.884;2022-11-27T11:33:22;20.90;;;8.25;;
66721;SDS011;53633;49.932;10.884;2022-11-27T11:35:52;22.98;;;7.90;;
66721;SDS011;53633;49.932;10.884;2022-11-27T11:38:23;17.65;;;7.53;;
66721;SDS011;53633;49.932;10.884;2022-11-27T11:40:56;19.17;;;7.43;;
66721;SDS011;53633;49.932;10.884;2022-11-27T11:43:26;20.65;;;7.05;;
66721;SDS011;53633;49.932;10.884;2022-11-27T11:46:02;16.20;;;7.28;;
66721;SDS011;53633;49.932;10.884;2022-11-27T11:48:30;20.63;;;7.85;;
66721;SDS011;53633;49.932;10.884;2022-11-27T11:50:59;22.90;;;7.68;;
66721;SDS011;53633;49.932;10.884;2022-11-27T11:53:30;19.45;;;8.13;;
66721;SDS011;53633;49.932;10.884;2022-11-27T11:56:03;27.33;;;11.23;;
66721;SDS011;53633;49.932;10.884;2022-11-27T11:58:51;27.45;;;10.38;;
66721;SDS011;53633;49.932;10.884;2022-11-27T12:04:26;20.52;;;8.40;;
66721;SDS011;53633;49.932;10.884;2022-11-27T12:07:09;17.38;;;6.57;;
66721;SDS011;53633;49.932;10.884;2022-11-27T12:09:48;16.95;;;6.40;;
66721;SDS011;53633;49.932;10.884;2022-11-27T12:12:25;24.13;;;9.63;;
66721;SDS011;53633;49.932;10.884;2022-11-27T12:15:01;25.95;;;9.90;;
66721;SDS011;53633;49.932;10.884;2022-11-27T12:17:41;27.30;;;9.63;;
66721;SDS011;53633;49.932;10.884;2022-11-27T12:20:14;24.35;;;9.75;;
66721;SDS011;53633;49.932;10.884;2022-11-27T12:25:52;22.40;;;8.50;;
66721;SDS011;53633;49.932;10.884;2022-11-27T12:28:32;18.17;;;7.45;;
66721;SDS011;53633;49.932;10.884;2022-11-27T12:31:10;18.40;;;7.28;;
66721;SDS011;53633;49.932;10.884;2022-11-27T12:33:55;16.20;;;6.90;;
66721;SDS011;53633;49.932;10.884;2022-11-27T12:36:31;17.80;;;6.80;;
66721;SDS011;53633;49.932;10.884;2022-11-27T12:39:14;15.80;;;6.53;;
66721;SDS011;53633;49.932;10.884;2022-11-27T12:41:58;19.33;;;6.65;;
66721;SDS011;53633;49.932;10.884;2022-11-27T12:44:28;17.50;;;6.70;;
66721;SDS011;53633;49.932;10.884;2022-11-27T12:47:03;16.95;;;6.80;;
66721;SDS011;53633;49.932;10.884;2022-11-27T12:49:35;15.95;;;6.50;;
66721;SDS011;53633;49.932;10.884;2022-11-27T12:52:08;14.43;;;6.53;;
66721;SDS011;53633;49.932;10.884;2022-11-27T12:54:41;15.70;;;6.38;;
66721;SDS011;53633;49.932;10.884;2022-11-27T12:57:12;15.07;;;6.60;;
66721;SDS011;53633;49.932;10.884;2022-11-27T12:59:43;16.15;;;6.63;;
66721;SDS011;53633;49.932;10.884;2022-11-27T13:02:19;15.75;;;6.63;;
66721;SDS011;53633;49.932;10.884;2022-11-27T13:04:53;15.80;;;5.72;;
66721;SDS011;53633;49.932;10.884;2022-11-27T13:07:25;15.57;;;6.30;;
66721;SDS011;53633;49.932;10.884;2022-11-27T13:09:58;43.50;;;11.57;;
66721;SDS011;53633;49.932;10.884;2022-11-27T13:12:31;99.68;;;18.90;;
66721;SDS011;53633;49.932;10.884;2022-11-27T13:15:04;49.72;;;13.75;;
66721;SDS011;53633;49.932;10.884;2022-11-27T13:17:36;23.23;;;9.35;;
66721;SDS011;53633;49.932;10.884;2022-11-27T13:20:08;21.20;;;10.43;;
66721;SDS011;53633;49.932;10.884;2022-11-27T13:22:40;28.95;;;12.88;;
66721;SDS011;53633;49.932;10.884;2022-11-27T13:25:10;21.67;;;9.13;;
66721;SDS011;53633;49.932;10.884;2022-11-27T13:27:38;20.02;;;8.65;;
66721;SDS011;53633;49.932;10.884;2022-11-27T13:30:08;20.48;;;9.30;;
66721;SDS011;53633;49.932;10.884;2022-11-27T13:32:46;16.75;;;7.72;;
66721;SDS011;53633;49.932;10.884;2022-11-27T13:35:18;19.58;;;8.55;;
66721;SDS011;53633;49.932;10.884;2022-11-27T13:37:47;16.58;;;7.05;;
66721;SDS011;53633;49.932;10.884;2022-11-27T13:40:23;14.10;;;6.20;;
66721;SDS011;53633;49.932;10.884;2022-11-27T13:42:54;16.38;;;5.88;;
66721;SDS011;53633;49.932;10.884;2022-11-27T13:45:24;14.85;;;5.70;;
66721;SDS011;53633;49.932;10.884;2022-11-27T13:47:53;10.75;;;5.10;;
66721;SDS011;53633;49.932;10.884;2022-11-27T13:50:22;14.05;;;5.20;;
66721;SDS011;53633;49.932;10.884;2022-11-27T13:52:56;23.38;;;7.20;;
66721;SDS011;53633;49.932;10.884;2022-11-27T13:55:28;18.00;;;6.88;;
66721;SDS011;53633;49.932;10.884;2022-11-27T13:57:56;14.18;;;6.28;;
66721;SDS011;53633;49.932;10.884;2022-11-27T14:00:32;16.90;;;6.25;;
66721;SDS011;53633;49.932;10.884;2022-11-27T14:03:00;15.75;;;5.63;;
66721;SDS011;53633;49.932;10.884;2022-11-27T14:05:35;12.32;;;5.13;;
66721;SDS011;53633;49.932;10.884;2022-11-27T14:08:13;11.45;;;4.65;;
66721;SDS011;53633;49.932;10.884;2022-11-27T14:10:48;13.40;;;5.07;;
66721;SDS011;53633;49.932;10.884;2022-11-27T14:13:18;16.17;;;6.50;;
66721;SDS011;53633;49.932;10.884;2022-11-27T14:15:59;12.23;;;5.28;;
66721;SDS011;53633;49.932;10.884;2022-11-27T14:18:27;14.02;;;5.63;;
66721;SDS011;53633;49.932;10.884;2022-11-27T14:20:56;13.45;;;6.38;;
66721;SDS011;53633;49.932;10.884;2022-11-27T14:23:26;12.63;;;4.78;;
66721;SDS011;53633;49.932;10.884;2022-11-27T14:26:03;11.85;;;4.47;;
66721;SDS011;53633;49.932;10.884;2022-11-27T14:28:40;11.68;;;4.75;;
66721;SDS011;53633;49.932;10.884;2022-11-27T14:31:17;13.02;;;4.60;;
66721;SDS011;53633;49.932;10.884;2022-11-27T14:33:50;10.27;;;4.40;;
66721;SDS011;53633;49.932;10.884;2022-11-27T14:36:37;9.93;;;4.05;;
66721;SDS011;53633;49.932;10.884;2022-11-27T14:39:04;15.00;;;4.60;;
66721;SDS011;53633;49.932;10.884;2022-11-27T14:41:32;11.85;;;4.43;;
66721;SDS011;53633;49.932;10.884;2022-11-27T14:43:59;10.35;;;4.05;;
66721;SDS011;53633;49.932;10.884;2022-11-27T14:46:26;11.68;;;4.30;;
66721;SDS011;53633;49.932;10.884;2022-11-27T14:48:55;11.63;;;4.28;;
66721;SDS011;53633;49.932;10.884;2022-11-27T14:51:22;10.82;;;4.13;;
66721;SDS011;53633;49.932;10.884;2022-11-27T14:53:52;9.50;;;3.85;;